Time;durP1;ratioP1;P1;durP2;ratioP2;P2;SDS_P1;SDS_P2;PMS_P1;PMS_P2;Temp;Humidity;BMP_temperature;BMP_pressure;BME280_temperature;BME280_humidity;BME280_pressure;Samples;Min_cycle;Max_cycle;Signal;HPM_P1;HPM_P2
2022/04/29 00:00:45;;;;;;;4.18;2.20;;;;;;;20.89;35.35;102904.41;5093193;28;20501;-68
2022/04/29 00:03:12;;;;;;;4.60;1.70;;;;;;;20.87;35.44;102905.44;5092226;28;20024;-68
2022/04/29 00:05:40;;;;;;;3.90;1.92;;;;;;;20.86;35.37;102904.59;5093183;28;20050;-68
2022/04/29 00:08:06;;;;;;;4.93;1.67;;;;;;;20.86;35.24;102914.34;5092996;28;20020;-68
2022/04/29 00:10:32;;;;;;;4.60;1.83;;;;;;;20.84;35.03;102909.97;5092571;28;20024;-69
2022/04/29 00:12:59;;;;;;;4.93;1.90;;;;;;;20.83;35.21;102900.31;5092653;28;20044;-69
2022/04/29 00:15:25;;;;;;;3.67;1.80;;;;;;;20.82;35.22;102901.28;5093419;28;20024;-69
2022/04/29 00:17:51;;;;;;;6.40;1.98;;;;;;;20.81;35.29;102902.22;5092241;28;20028;-69
2022/04/29 00:20:16;;;;;;;4.55;1.65;;;;;;;20.80;35.31;102895.19;5092990;28;20051;-69
2022/04/29 00:22:44;;;;;;;4.20;1.80;;;;;;;20.80;35.39;102895.19;5093154;28;20081;-68
2022/04/29 00:25:09;;;;;;;4.55;1.70;;;;;;;20.78;35.25;102896.25;5092165;28;20031;-69
2022/04/29 00:27:36;;;;;;;5.93;2.50;;;;;;;20.76;35.29;102896.34;5092816;28;20024;-69
2022/04/29 00:30:03;;;;;;;3.90;1.77;;;;;;;20.76;35.08;102900.75;5092812;28;20112;-68
2022/04/29 00:32:28;;;;;;;4.57;1.60;;;;;;;20.74;35.30;102897.38;5091979;28;20028;-68
2022/04/29 00:34:54;;;;;;;4.03;2.07;;;;;;;20.72;35.27;102892.16;5092542;28;20073;-68
2022/04/29 00:37:19;;;;;;;4.93;2.10;;;;;;;20.71;35.42;102895.78;5092998;28;20309;-69
2022/04/29 00:39:44;;;;;;;4.95;1.92;;;;;;;20.70;35.25;102896.72;5092229;28;20021;-69
2022/04/29 00:42:14;;;;;;;4.93;2.05;;;;;;;20.70;35.34;102899.34;5092748;28;20475;-68
2022/04/29 00:44:41;;;;;;;4.07;1.77;;;;;;;20.71;35.49;102886.94;5092991;28;20020;-69
2022/04/29 00:47:09;;;;;;;4.15;1.80;;;;;;;20.69;35.15;102888.84;5092261;28;20024;-68
2022/04/29 00:49:34;;;;;;;5.35;1.92;;;;;;;20.69;35.18;102883.56;5092595;28;20472;-68
2022/04/29 00:52:00;;;;;;;3.45;1.70;;;;;;;20.67;35.38;102886.28;5092596;28;20044;-68
2022/04/29 00:54:30;;;;;;;3.85;1.80;;;;;;;20.67;35.30;102877.50;5092033;28;20032;-68
2022/04/29 00:56:57;;;;;;;4.32;1.65;;;;;;;20.66;35.36;102887.22;5092507;28;20028;-68
2022/04/29 00:59:42;;;;;;;4.68;1.85;;;;;;;20.63;35.34;102879.44;5091816;28;20032;-68
2022/04/29 01:02:09;;;;;;;4.63;1.75;;;;;;;20.63;35.33;102882.94;5092718;28;20029;-68
2022/04/29 01:04:44;;;;;;;4.38;2.03;;;;;;;20.62;35.14;102880.38;5092839;28;20044;-68
2022/04/29 01:07:09;;;;;;;4.80;1.80;;;;;;;20.62;35.32;102881.22;5091755;28;20028;-68
2022/04/29 01:09:34;;;;;;;3.80;1.60;;;;;;;20.60;35.07;102875.19;5092737;28;20066;-68
2022/04/29 01:12:00;;;;;;;3.97;1.98;;;;;;;20.59;35.25;102881.41;5094708;28;20395;-68
2022/04/29 01:14:26;;;;;;;4.18;1.80;;;;;;;20.59;35.21;102873.47;5095513;28;20035;-68
2022/04/29 01:16:51;;;;;;;3.63;1.73;;;;;;;20.58;35.36;102871.75;5096249;28;20028;-69
2022/04/29 01:19:16;;;;;;;3.83;1.80;;;;;;;20.57;35.30;102864.78;5096116;28;20801;-69
2022/04/29 01:21:42;;;;;;;4.07;1.92;;;;;;;20.57;35.16;102862.13;5095521;28;20024;-68
2022/04/29 01:24:08;;;;;;;3.58;1.80;;;;;;;20.56;35.21;102859.56;5095987;28;20123;-68
2022/04/29 01:26:36;;;;;;;4.78;1.85;;;;;;;20.54;35.25;102854.34;5096092;28;20554;-69
2022/04/29 01:29:02;;;;;;;3.97;1.60;;;;;;;20.54;35.30;102849.06;5094910;28;20028;-69
2022/04/29 01:31:28;;;;;;;4.10;1.70;;;;;;;20.52;35.15;102848.31;5096151;28;20039;-69
2022/04/29 01:33:54;;;;;;;4.50;1.63;;;;;;;20.52;35.12;102848.31;5095853;28;20028;-69
2022/04/29 01:36:20;;;;;;;4.63;1.90;;;;;;;20.51;35.12;102838.66;5095389;28;20020;-68
2022/04/29 01:38:45;;;;;;;3.70;1.55;;;;;;;20.50;35.08;102846.69;5095977;28;20043;-69
2022/04/29 01:41:11;;;;;;;3.33;1.48;;;;;;;20.50;35.21;102841.38;5095683;28;20020;-68
2022/04/29 01:43:36;;;;;;;4.05;1.80;;;;;;;20.48;35.05;102844.97;5095055;28;20024;-69
2022/04/29 01:46:02;;;;;;;3.50;1.63;;;;;;;20.48;35.12;102839.66;5095733;28;20104;-69
2022/04/29 01:48:28;;;;;;;4.22;1.85;;;;;;;20.48;35.22;102831.72;5096730;28;20455;-68
2022/04/29 01:50:53;;;;;;;4.53;1.85;;;;;;;20.48;35.07;102842.31;5096318;28;20081;-68
2022/04/29 01:53:19;;;;;;;4.50;1.60;;;;;;;20.47;35.26;102837.13;5096974;28;20019;-68
2022/04/29 01:55:44;;;;;;;4.45;1.80;;;;;;;20.45;35.14;102833.72;5095763;28;20078;-68
2022/04/29 01:58:10;;;;;;;3.80;1.90;;;;;;;20.44;35.13;102832.88;5095853;28;20020;-68
2022/04/29 02:00:35;;;;;;;3.85;1.70;;;;;;;20.44;35.15;102839.94;5096650;28;20429;-68
2022/04/29 02:03:00;;;;;;;3.75;1.60;;;;;;;20.43;35.34;102843.56;5095676;28;20081;-69
2022/04/29 02:05:26;;;;;;;4.03;1.90;;;;;;;20.42;35.34;102840.03;5096365;28;20460;-67
2022/04/29 02:07:51;;;;;;;4.22;1.50;;;;;;;20.41;35.20;102840.13;5095794;28;20020;-68
2022/04/29 02:10:17;;;;;;;4.68;1.70;;;;;;;20.39;35.03;102829.63;5094603;28;20410;-68
2022/04/29 02:12:43;;;;;;;3.92;1.75;;;;;;;20.40;35.11;102833.16;5095011;28;20101;-67
2022/04/29 02:15:08;;;;;;;4.80;1.98;;;;;;;20.38;35.24;102830.59;5095581;28;20032;-68
2022/04/29 02:17:34;;;;;;;4.88;1.85;;;;;;;20.38;35.11;102837.69;5095465;28;20024;-68
2022/04/29 02:19:59;;;;;;;3.72;1.80;;;;;;;20.37;35.23;102836.81;5095884;28;20020;-69
2022/04/29 02:22:25;;;;;;;3.05;1.50;;;;;;;20.36;35.16;102836.91;5095737;28;20024;-69
2022/04/29 02:24:50;;;;;;;4.20;1.60;;;;;;;20.35;35.03;102835.22;5094823;28;20027;-69
2022/04/29 02:27:15;;;;;;;3.67;1.65;;;;;;;20.34;35.12;102836.16;5095627;28;20024;-69
2022/04/29 02:29:41;;;;;;;3.95;2.05;;;;;;;20.34;35.04;102833.50;5095351;28;20032;-69
2022/04/29 02:32:07;;;;;;;4.45;1.63;;;;;;;20.32;35.02;102830.94;5094290;28;20480;-69
2022/04/29 02:34:32;;;;;;;5.00;1.92;;;;;;;20.33;35.02;102826.50;5095278;28;20036;-68
2022/04/29 02:36:57;;;;;;;4.82;1.83;;;;;;;20.30;35.08;102831.03;5094552;28;20044;-68
2022/04/29 02:39:22;;;;;;;4.43;1.50;;;;;;;20.29;35.02;102823.19;5094484;28;20032;-69
2022/04/29 02:41:48;;;;;;;4.25;1.60;;;;;;;20.28;35.01;102826.78;5094678;28;20411;-68
2022/04/29 02:44:14;;;;;;;3.80;1.60;;;;;;;20.28;35.11;102826.78;5094577;28;20020;-68
2022/04/29 02:49:26;;;;;;;3.33;1.60;;;;;;;20.27;35.05;102827.72;5094881;28;20140;-69
2022/04/29 02:51:51;;;;;;;2.65;1.48;;;;;;;20.24;34.98;102825.25;5093310;28;20049;-69
2022/04/29 02:54:17;;;;;;;3.73;1.63;;;;;;;20.23;35.18;102821.75;5094686;28;20055;-68
2022/04/29 02:56:42;;;;;;;4.18;1.80;;;;;;;20.24;35.05;102825.25;5094418;28;20625;-68
2022/04/29 02:59:07;;;;;;;3.20;1.50;;;;;;;20.23;35.04;102826.19;5093592;28;20028;-67
2022/04/29 03:01:33;;;;;;;3.85;1.60;;;;;;;20.22;35.06;102822.72;5094561;28;20740;-67
2022/04/29 03:03:59;;;;;;;4.63;1.88;;;;;;;20.23;35.11;102826.19;5094151;28;20028;-68
2022/04/29 03:06:24;;;;;;;4.00;1.70;;;;;;;20.21;35.06;102813.03;5093668;28;20031;-68
2022/04/29 03:08:50;;;;;;;4.50;1.63;;;;;;;20.21;35.13;102812.22;5093885;28;20020;-68
2022/04/29 03:11:15;;;;;;;3.55;1.60;;;;;;;20.20;34.85;102811.38;5094269;28;20185;-68
2022/04/29 03:13:40;;;;;;;5.33;1.63;;;;;;;20.19;35.10;102803.50;5093631;28;20039;-69
2022/04/29 03:16:05;;;;;;;4.37;1.77;;;;;;;20.19;35.04;102804.34;5093973;28;20024;-68
2022/04/29 03:18:31;;;;;;;3.60;1.80;;;;;;;20.19;35.20;102795.56;5094159;28;20355;-68
2022/04/29 03:20:59;;;;;;;4.28;1.80;;;;;;;20.17;35.08;102782.44;5092880;28;20028;-68
2022/04/29 03:23:24;;;;;;;4.05;1.58;;;;;;;20.17;35.14;102781.56;5093980;28;20097;-68
2022/04/29 03:25:50;;;;;;;3.83;1.60;;;;;;;20.16;35.08;102790.47;5093865;28;20447;-68
2022/04/29 03:28:15;;;;;;;3.42;1.63;;;;;;;20.15;35.08;102802.81;5093228;28;20044;-68
2022/04/29 03:30:45;;;;;;;3.70;1.80;;;;;;;20.14;35.17;102809.06;5093730;28;20082;-69
2022/04/29 03:33:11;;;;;;;5.05;1.77;;;;;;;20.14;35.07;102803.78;5092682;28;20134;-68
2022/04/29 03:35:42;;;;;;;5.22;2.22;;;;;;;20.14;34.79;102805.56;5093400;28;20149;-69
2022/04/29 03:38:07;;;;;;;4.40;2.10;;;;;;;20.14;34.99;102808.19;5093106;28;20475;-69
2022/04/29 03:40:32;;;;;;;3.83;1.67;;;;;;;20.13;35.09;102817.94;5093608;28;20028;-69
2022/04/29 03:42:58;;;;;;;4.20;1.67;;;;;;;20.12;35.09;102818.88;5092416;28;20027;-69
2022/04/29 03:45:27;;;;;;;3.35;1.50;;;;;;;20.11;35.05;102812.75;5093504;28;20141;-67
2022/04/29 03:47:55;;;;;;;3.95;1.80;;;;;;;20.11;35.23;102798.66;5093034;28;20376;-68
2022/04/29 03:50:25;;;;;;;3.80;1.60;;;;;;;20.10;35.09;102799.59;5092682;28;20016;-69
2022/04/29 03:52:58;;;;;;;3.53;1.73;;;;;;;20.09;35.02;102800.53;5092997;28;20028;-68
2022/04/29 03:55:26;;;;;;;4.28;1.83;;;;;;;20.07;34.99;102797.97;5092806;28;20357;-69
2022/04/29 03:57:55;;;;;;;3.13;1.35;;;;;;;20.07;34.99;102808.56;5092980;28;20475;-69
2022/04/29 04:00:22;;;;;;;4.38;1.90;;;;;;;20.07;35.18;102813.00;5093271;28;20028;-68
2022/04/29 04:02:47;;;;;;;3.78;1.58;;;;;;;20.06;34.93;102803.34;5092514;28;20044;-68
2022/04/29 04:05:13;;;;;;;4.83;1.80;;;;;;;20.06;35.03;102795.41;5092860;28;20104;-69
2022/04/29 04:07:38;;;;;;;4.32;1.90;;;;;;;20.05;35.01;102799.03;5092722;28;20279;-68
2022/04/29 04:10:05;;;;;;;6.60;2.03;;;;;;;20.05;35.13;102799.88;5091835;28;20032;-68
2022/04/29 04:12:49;;;;;;;3.80;1.70;;;;;;;20.04;35.06;102806.09;5092778;28;20105;-68
2022/04/29 04:15:16;;;;;;;3.22;1.48;;;;;;;20.03;35.06;102800.91;5092961;28;20028;-68
2022/04/29 04:17:43;;;;;;;5.10;1.92;;;;;;;20.02;35.00;102807.97;5092066;28;20020;-68
2022/04/29 04:20:09;;;;;;;4.43;1.80;;;;;;;20.02;34.85;102794.75;5092793;28;20155;-68
2022/04/29 04:22:35;;;;;;;4.32;1.90;;;;;;;20.03;34.96;102798.28;5092757;28;20024;-69
2022/04/29 04:25:06;;;;;;;3.80;1.58;;;;;;;20.01;34.83;102790.41;5091973;28;20038;-68
2022/04/29 04:27:32;;;;;;;5.53;1.77;;;;;;;20.01;34.88;102784.25;5092983;28;20055;-67
2022/04/29 04:29:58;;;;;;;3.70;1.85;;;;;;;20.01;34.90;102786.91;5108312;28;20016;-68
2022/04/29 04:32:24;;;;;;;4.97;1.90;;;;;;;20.00;35.02;102794.00;5091884;28;20479;-69
2022/04/29 04:34:53;;;;;;;4.47;1.67;;;;;;;19.99;35.26;102784.34;5092556;28;20036;-68
2022/04/29 04:37:23;;;;;;;5.18;1.80;;;;;;;19.98;34.96;102787.06;5091942;28;20471;-68
2022/04/29 04:39:49;;;;;;;4.45;1.70;;;;;;;19.98;34.89;102787.06;5092600;28;20016;-68
2022/04/29 04:42:15;;;;;;;4.07;1.70;;;;;;;19.98;34.95;102789.72;5092743;28;20031;-68
2022/04/29 04:44:40;;;;;;;4.70;1.70;;;;;;;19.98;35.03;102784.44;5092499;28;20024;-68
2022/04/29 04:47:06;;;;;;;3.60;1.73;;;;;;;19.99;35.22;102791.44;5096392;28;20471;-68
2022/04/29 04:49:34;;;;;;;5.10;1.80;;;;;;;19.97;35.02;102782.75;5096689;28;20028;-68
2022/04/29 04:51:59;;;;;;;3.78;2.03;;;;;;;19.97;34.92;102783.59;5095485;28;20415;-68
2022/04/29 04:54:25;;;;;;;4.15;1.65;;;;;;;19.97;34.94;102780.09;5096838;28;20056;-68
2022/04/29 04:56:50;;;;;;;2.80;1.40;;;;;;;19.97;34.92;102780.09;5096536;28;20024;-69
2022/04/29 04:59:18;;;;;;;6.60;2.22;;;;;;;19.97;34.97;102788.88;5095827;28;20107;-69
2022/04/29 05:01:46;;;;;;;5.07;1.80;;;;;;;19.96;34.97;102783.69;5096493;28;20039;-68
2022/04/29 05:04:11;;;;;;;4.60;1.90;;;;;;;19.94;34.97;102781.97;5096007;28;20028;-69
2022/04/29 05:06:37;;;;;;;3.55;1.83;;;;;;;19.94;34.91;102781.97;5095459;28;20039;-68
2022/04/29 05:09:06;;;;;;;3.88;1.88;;;;;;;19.94;34.85;102783.78;5096139;28;20024;-68
2022/04/29 05:11:32;;;;;;;6.20;1.80;;;;;;;19.96;34.96;102781.03;5096283;28;20048;-68
2022/04/29 05:13:57;;;;;;;4.30;1.80;;;;;;;19.94;34.90;102781.13;5095153;28;20024;-68
2022/04/29 05:16:23;;;;;;;4.88;2.05;;;;;;;19.93;34.84;102780.28;5096499;28;20031;-68
2022/04/29 05:18:48;;;;;;;5.07;1.90;;;;;;;19.93;34.91;102780.28;5096092;28;20464;-69
2022/04/29 05:21:17;;;;;;;4.65;2.00;;;;;;;19.93;35.10;102782.06;5095506;28;20494;-69
2022/04/29 05:23:42;;;;;;;4.20;1.80;;;;;;;19.93;35.13;102790.00;5096229;28;20028;-69
2022/04/29 05:26:08;;;;;;;4.78;1.90;;;;;;;19.93;35.25;102790.88;5095650;28;20508;-69
2022/04/29 05:28:34;;;;;;;3.70;1.60;;;;;;;19.96;35.61;102791.63;5095248;28;20032;-69
2022/04/29 05:31:00;;;;;;;3.33;1.40;;;;;;;20.00;35.82;102790.50;5095966;28;20047;-70
2022/04/29 05:33:26;;;;;;;4.07;1.48;;;;;;;20.02;35.83;102788.63;5095916;28;20028;-69
2022/04/29 05:35:51;;;;;;;3.33;1.27;;;;;;;20.06;35.52;102795.41;5094802;28;20107;-69
2022/04/29 05:38:17;;;;;;;3.47;1.33;;;;;;;20.09;35.85;102787.28;5095948;28;20016;-69
2022/04/29 05:43:27;;;;;;;3.25;1.15;;;;;;;20.15;35.81;102788.75;5095993;28;20089;-69
2022/04/29 05:45:53;;;;;;;3.45;1.30;;;;;;;20.18;35.72;102799.16;5095648;28;20052;-69
2022/04/29 05:48:18;;;;;;;3.90;1.60;;;;;;;20.19;35.91;102795.56;5093734;28;20059;-70
2022/04/29 05:50:44;;;;;;;2.25;1.20;;;;;;;20.22;35.97;102796.22;5095715;28;20020;-70
2022/04/29 05:53:10;;;;;;;4.65;1.70;;;;;;;20.23;35.98;102799.72;5095275;28;20112;-69
2022/04/29 05:55:36;;;;;;;3.30;1.30;;;;;;;20.26;35.88;102800.38;5094726;28;20436;-69
2022/04/29 05:58:02;;;;;;;3.47;1.48;;;;;;;20.28;35.86;102805.59;5094541;28;20372;-70
2022/04/29 06:00:27;;;;;;;2.70;1.10;;;;;;;20.32;36.00;102814.22;5095605;28;20028;-70
2022/04/29 06:02:53;;;;;;;3.40;1.55;;;;;;;20.34;35.83;102807.03;5094493;28;20540;-70
2022/04/29 06:05:18;;;;;;;3.47;1.20;;;;;;;20.35;35.74;102803.44;5094090;28;20613;-70
2022/04/29 06:07:44;;;;;;;3.63;1.33;;;;;;;20.38;35.79;102806.75;5095347;28;20273;-70
2022/04/29 06:10:09;;;;;;;2.80;1.30;;;;;;;20.40;35.76;102811.97;5094133;28;20020;-70
2022/04/29 06:12:39;;;;;;;3.17;1.38;;;;;;;20.41;35.87;102809.22;5094810;28;20514;-70
2022/04/29 06:15:05;;;;;;;3.88;1.30;;;;;;;20.43;35.74;102811.78;5095101;28;20023;-70
2022/04/29 06:17:30;;;;;;;3.25;1.40;;;;;;;20.45;35.86;102810.72;5094393;28;20019;-70
2022/04/29 06:19:55;;;;;;;2.63;1.37;;;;;;;20.47;35.79;102806.22;5094801;28;20015;-70
2022/04/29 06:22:20;;;;;;;3.03;1.40;;;;;;;20.51;35.69;102817.47;5095002;28;20081;-70
2022/04/29 06:24:47;;;;;;;3.00;1.20;;;;;;;20.52;35.79;102810.34;5093931;28;20020;-70
2022/04/29 06:27:12;;;;;;;3.40;1.30;;;;;;;20.52;35.90;102811.22;5094785;28;20032;-70
2022/04/29 06:29:38;;;;;;;3.40;1.20;;;;;;;20.54;35.72;102822.56;5095097;28;20468;-70
2022/04/29 06:32:03;;;;;;;2.77;1.33;;;;;;;20.54;35.70;102817.28;5094015;28;20612;-72
2022/04/29 06:34:29;;;;;;;7.78;1.50;;;;;;;20.56;35.80;102817.19;5094760;28;20296;-72
2022/04/29 06:36:54;;;;;;;3.65;1.30;;;;;;;20.60;35.50;102822.19;5093746;28;20070;-68
2022/04/29 06:39:19;;;;;;;4.00;1.33;;;;;;;20.63;34.88;102826.44;5094613;28;20028;-72
2022/04/29 06:41:44;;;;;;;4.77;1.60;;;;;;;20.67;34.96;102828.00;5094517;28;20329;-71
2022/04/29 06:44:10;;;;;;;4.32;1.40;;;;;;;20.68;35.23;102831.50;5093679;28;20375;-71
2022/04/29 06:46:35;;;;;;;4.22;1.67;;;;;;;20.70;35.23;102822.53;5094625;28;20024;-71
2022/04/29 06:49:00;;;;;;;3.67;1.65;;;;;;;20.71;34.82;102818.94;5094339;28;20482;-73
2022/04/29 06:51:25;;;;;;;3.13;1.40;;;;;;;20.72;35.02;102820.63;5093737;28;20034;-74
2022/04/29 06:53:51;;;;;;;3.80;1.77;;;;;;;20.71;35.20;102820.72;5093965;28;20296;-69
2022/04/29 06:56:17;;;;;;;4.47;1.45;;;;;;;20.75;35.17;102827.53;5094245;28;20279;-67
2022/04/29 06:58:42;;;;;;;4.20;1.60;;;;;;;20.77;35.18;102830.94;5093487;28;20073;-66
2022/04/29 07:01:07;;;;;;;3.95;1.55;;;;;;;20.78;35.30;102825.53;5094170;28;20282;-69
2022/04/29 07:03:33;;;;;;;3.53;1.33;;;;;;;20.83;35.06;102841.16;5094284;28;20427;-68
2022/04/29 07:06:01;;;;;;;5.15;1.83;;;;;;;20.84;35.21;102834.94;5093345;28;20329;-66
2022/04/29 07:08:28;;;;;;;5.03;1.80;;;;;;;20.87;35.14;102833.88;5097751;28;20088;-71
2022/04/29 07:10:55;;;;;;;4.22;1.40;;;;;;;20.88;35.17;102828.47;5102176;28;20032;-70
2022/04/29 07:13:20;;;;;;;4.60;1.60;;;;;;;20.89;35.44;102832.00;5101954;28;20570;-72
2022/04/29 07:15:45;;;;;;;3.43;1.43;;;;;;;20.91;35.20;102828.28;5098026;28;20055;-72
2022/04/29 07:18:10;;;;;;;4.38;1.60;;;;;;;20.92;35.19;102827.34;5095056;28;20044;-71
2022/04/29 07:20:36;;;;;;;3.05;1.52;;;;;;;20.94;35.58;102836.06;5093829;28;20099;-72
2022/04/29 07:23:01;;;;;;;4.53;1.63;;;;;;;20.96;35.29;102836.78;5094104;28;20103;-71
2022/04/29 07:25:27;;;;;;;3.97;1.60;;;;;;;20.97;35.65;102829.72;5093970;28;20154;-71
2022/04/29 07:27:52;;;;;;;4.78;1.38;;;;;;;20.97;35.67;102833.22;5092579;28;20472;-72
2022/04/29 07:30:17;;;;;;;4.90;1.70;;;;;;;20.96;35.77;102834.16;5093818;28;20042;-74
2022/04/29 07:32:42;;;;;;;4.60;1.50;;;;;;;20.97;35.55;102832.38;5093903;28;20024;-73
2022/04/29 07:43:21;;;;;;;4.03;2.10;;;;;;;21.00;35.36;102830.38;5093679;28;20089;-71
2022/04/29 07:45:46;;;;;;;4.38;1.90;;;;;;;20.99;35.67;102828.66;5093394;28;20036;-72
2022/04/29 07:48:11;;;;;;;4.45;1.63;;;;;;;20.94;35.78;102827.25;5093101;28;20145;-72
2022/04/29 07:50:37;;;;;;;4.20;2.22;;;;;;;20.91;35.76;102825.63;5094113;28;20107;-70
2022/04/29 07:53:04;;;;;;;4.93;1.90;;;;;;;20.91;35.73;102830.94;5093194;28;20020;-71
2022/04/29 07:55:29;;;;;;;4.47;1.65;;;;;;;20.93;35.53;102834.34;5092646;28;20028;-68
2022/04/29 07:57:56;;;;;;;5.47;1.75;;;;;;;20.95;35.62;102832.47;5092900;28;20043;-75
2022/04/29 08:00:21;;;;;;;5.50;2.10;;;;;;;20.95;35.38;102837.75;5093205;28;20052;-70
2022/04/29 08:02:47;;;;;;;5.32;2.00;;;;;;;20.93;35.90;102838.78;5092327;28;20044;-69
2022/04/29 08:05:12;;;;;;;4.03;1.65;;;;;;;20.92;35.87;102839.72;5092955;28;20152;-72
2022/04/29 08:07:38;;;;;;;4.73;1.80;;;;;;;20.93;35.53;102836.16;5093255;28;20475;-71
2022/04/29 08:10:04;;;;;;;4.70;2.08;;;;;;;20.94;35.55;102840.50;5092065;28;20269;-70
2022/04/29 08:12:29;;;;;;;4.55;2.30;;;;;;;20.90;35.35;102831.03;5092744;28;20109;-72
2022/04/29 08:14:57;;;;;;;5.00;1.80;;;;;;;20.89;35.75;102835.50;5092534;28;20464;-70
2022/04/29 08:17:24;;;;;;;4.03;2.00;;;;;;;20.87;35.67;102831.22;5092041;28;20085;-72
2022/04/29 08:19:49;;;;;;;5.95;2.10;;;;;;;20.87;35.88;102832.09;5093632;28;20028;-71
2022/04/29 08:22:16;;;;;;;5.30;2.58;;;;;;;20.84;35.29;102840.22;5093194;28;20020;-70
2022/04/29 08:24:42;;;;;;;6.78;2.70;;;;;;;20.81;35.71;102846.56;5092110;28;20027;-72
2022/04/29 08:27:07;;;;;;;11.90;2.50;;;;;;;20.83;35.89;102846.47;5092423;28;20107;-74
2022/04/29 08:29:32;;;;;;;5.68;1.90;;;;;;;20.82;36.02;102842.09;5092985;28;20058;-77
2022/04/29 08:31:58;;;;;;;3.75;1.80;;;;;;;20.86;36.00;102845.44;5092638;28;20028;-78
2022/04/29 08:34:26;;;;;;;4.45;2.05;;;;;;;20.89;35.81;102848.75;5093269;28;20162;-78
2022/04/29 08:36:51;;;;;;;5.07;1.90;;;;;;;20.91;36.06;102852.13;5092544;28;20061;-79
2022/04/29 08:39:17;;;;;;;5.75;1.95;;;;;;;20.90;36.01;102849.59;5093386;28;20107;-73
2022/04/29 08:41:54;;;;;;;5.30;2.22;;;;;;;20.92;36.10;102842.38;5093040;28;20110;-74
2022/04/29 08:44:19;;;;;;;7.72;2.60;;;;;;;20.90;36.09;102842.47;5092606;28;20059;-76
2022/04/29 08:46:45;;;;;;;7.57;2.25;;;;;;;20.89;35.75;102839.94;5093899;28;20054;-79
2022/04/29 08:49:11;;;;;;;4.10;2.40;;;;;;;20.92;35.94;102840.59;5093113;28;20361;-78
2022/04/29 08:51:39;;;;;;;8.77;2.97;;;;;;;20.95;35.93;102842.19;5092896;28;20020;-72
2022/04/29 08:54:05;;;;;;;5.30;2.00;;;;;;;20.94;36.13;102829.91;5092374;28;20028;-73
2022/04/29 08:59:30;;;;;;;4.70;1.90;;;;;;;20.94;36.07;102824.59;5092228;28;20034;-73
2022/04/29 09:01:56;;;;;;;3.85;1.75;;;;;;;20.93;36.00;102814.94;5092553;28;20032;-73
2022/04/29 09:04:21;;;;;;;5.32;1.90;;;;;;;20.92;35.91;102814.09;5092671;28;20032;-67
2022/04/29 09:06:48;;;;;;;4.68;2.17;;;;;;;20.95;36.00;102826.28;5091898;28;20031;-74
2022/04/29 09:09:13;;;;;;;4.45;2.30;;;;;;;20.96;35.79;102839.44;5092689;28;20051;-73
2022/04/29 09:11:39;;;;;;;4.57;1.92;;;;;;;20.96;35.98;102838.59;5092143;28;20048;-73
2022/04/29 09:14:24;;;;;;;4.05;1.90;;;;;;;20.95;36.00;102842.19;5092769;28;20020;-73
2022/04/29 09:16:50;;;;;;;4.82;2.00;;;;;;;20.95;35.89;102840.41;5093027;28;20024;-73
2022/04/29 09:19:36;;;;;;;3.78;1.63;;;;;;;20.93;35.93;102844.94;5092691;28;20112;-74
2022/04/29 09:22:07;;;;;;;3.95;2.00;;;;;;;20.94;35.88;102840.50;5097856;28;20040;-78
2022/04/29 09:24:32;;;;;;;6.63;2.33;;;;;;;20.93;35.97;102837.00;5110967;28;20054;-73
2022/04/29 09:27:03;;;;;;;3.70;1.92;;;;;;;20.93;36.07;102846.75;5101659;28;20475;-77
2022/04/29 09:29:41;;;;;;;4.03;1.95;;;;;;;20.94;36.03;102843.16;5100852;28;20087;-75
2022/04/29 09:32:08;;;;;;;4.80;2.03;;;;;;;20.93;35.94;102841.44;5096295;28;20024;-73
2022/04/29 09:34:43;;;;;;;8.60;2.28;;;;;;;20.95;36.17;102844.84;5097042;28;20051;-74
2022/04/29 09:37:16;;;;;;;5.50;2.00;;;;;;;20.92;36.34;102850.34;5100236;28;20024;-75
2022/04/29 09:40:05;;;;;;;4.70;2.20;;;;;;;20.90;36.17;102844.28;5097103;28;20031;-74
2022/04/29 09:42:44;;;;;;;5.97;2.00;;;;;;;20.89;36.48;102853.19;5096439;28;20032;-72
2022/04/29 09:45:20;;;;;;;5.10;1.85;;;;;;;20.91;36.15;102849.50;5096041;28;20032;-74
2022/04/29 09:47:52;;;;;;;7.07;2.30;;;;;;;20.94;35.99;102844.00;5095009;28;20035;-70
2022/04/29 09:50:47;;;;;;;6.07;2.33;;;;;;;20.92;36.03;102835.31;5095824;28;20028;-72
2022/04/29 09:53:30;;;;;;;4.10;1.90;;;;;;;20.93;36.25;102838.78;5092184;28;20089;-73
2022/04/29 09:56:12;;;;;;;4.20;2.10;;;;;;;20.93;36.11;102833.50;5094929;28;20028;-73
2022/04/29 09:58:38;;;;;;;4.45;1.77;;;;;;;20.94;36.15;102833.41;5095939;28;20036;-71
2022/04/29 10:01:04;;;;;;;8.43;3.50;;;;;;;20.95;36.24;102835.13;5094530;28;20497;-72
2022/04/29 10:03:30;;;;;;;4.53;1.88;;;;;;;20.98;36.11;102826.09;5095759;28;20483;-73
2022/04/29 10:06:01;;;;;;;5.20;2.30;;;;;;;20.97;35.89;102835.03;5097354;28;20024;-72
2022/04/29 10:08:27;;;;;;;5.05;1.98;;;;;;;20.97;36.04;102832.38;5096473;28;20024;-72
2022/04/29 10:10:56;;;;;;;3.70;1.80;;;;;;;20.98;35.83;102834.94;5097950;28;20023;-72
2022/04/29 10:13:29;;;;;;;4.82;2.00;;;;;;;20.97;36.00;102825.25;5099558;28;20044;-71
2022/04/29 10:15:54;;;;;;;4.32;2.00;;;;;;;20.97;35.84;102822.59;5098437;28;20375;-73
2022/04/29 10:21:16;;;;;;;4.45;2.10;;;;;;;20.96;35.58;102825.34;5095731;28;20023;-70
2022/04/29 10:23:48;;;;;;;5.45;2.95;;;;;;;20.92;35.79;102816.75;5094740;28;20024;-69
2022/04/29 10:26:14;;;;;;;3.80;1.92;;;;;;;20.90;35.98;102808.03;5095500;28;20020;-73
2022/04/29 10:28:40;;;;;;;3.67;2.08;;;;;;;20.86;36.04;102811.81;5095623;28;20024;-70
2022/04/29 10:31:15;;;;;;;4.93;1.90;;;;;;;20.86;36.18;102816.28;5093704;28;20016;-71
2022/04/29 10:33:41;;;;;;;5.78;2.58;;;;;;;20.88;36.14;102820.53;5094931;28;20036;-71
2022/04/29 10:36:08;;;;;;;5.55;2.05;;;;;;;20.87;36.06;102817.97;5093668;28;20081;-70
2022/04/29 10:38:42;;;;;;;4.93;2.05;;;;;;;20.87;36.13;102815.31;5094792;28;20367;-73
2022/04/29 10:41:19;;;;;;;5.18;2.08;;;;;;;20.87;36.08;102812.66;5093972;28;20047;-70
2022/04/29 10:44:04;;;;;;;5.07;2.25;;;;;;;20.87;36.32;102812.66;5093603;28;20028;-70
2022/04/29 10:46:36;;;;;;;4.47;2.10;;;;;;;20.86;36.52;102817.13;5094456;28;20032;-68
2022/04/29 10:49:33;;;;;;;4.80;1.98;;;;;;;20.87;36.47;102816.19;5094177;28;20035;-75
2022/04/29 10:52:02;;;;;;;7.47;2.92;;;;;;;20.90;35.96;102810.66;5093598;28;20121;-72
2022/04/29 10:54:34;;;;;;;7.18;2.65;;;;;;;20.85;36.37;102807.47;5094346;28;20028;-67
2022/04/29 10:57:02;;;;;;;5.93;2.22;;;;;;;20.82;36.54;102808.53;5093992;28;20032;-68
2022/04/29 10:59:27;;;;;;;7.50;2.58;;;;;;;20.81;36.70;102803.31;5093835;28;20039;-69
2022/04/29 11:02:07;;;;;;;8.10;2.10;;;;;;;20.80;36.84;102798.94;5093746;28;20422;-68
2022/04/29 11:04:32;;;;;;;7.22;2.28;;;;;;;20.81;36.70;102798.88;5093491;28;20107;-68
2022/04/29 11:06:58;;;;;;;5.33;2.10;;;;;;;20.81;36.66;102798.03;5094018;28;20436;-69
2022/04/29 11:09:28;;;;;;;8.18;2.58;;;;;;;20.80;36.77;102796.31;5093670;28;20024;-68
2022/04/29 11:11:55;;;;;;;6.97;2.25;;;;;;;20.81;36.94;102798.03;5092899;28;20039;-71
2022/04/29 11:14:20;;;;;;;5.95;2.33;;;;;;;20.81;36.64;102804.16;5093831;28;20478;-72
2022/04/29 11:16:56;;;;;;;5.47;2.10;;;;;;;20.84;36.62;102797.84;5093877;28;20077;-72
2022/04/29 11:19:26;;;;;;;5.00;2.13;;;;;;;20.85;36.44;102796.88;5092963;28;20031;-72
2022/04/29 11:24:46;;;;;;;5.07;1.83;;;;;;;20.88;36.45;102790.53;5094110;28;20097;-72
2022/04/29 11:27:11;;;;;;;5.50;2.30;;;;;;;20.90;36.25;102792.13;5092641;28;20162;-71
2022/04/29 11:29:46;;;;;;;6.10;2.10;;;;;;;20.89;36.30;102792.25;5093981;28;20059;-71
2022/04/29 11:32:13;;;;;;;4.03;1.80;;;;;;;20.89;36.36;102789.59;5093457;28;20066;-71
2022/04/29 11:34:52;;;;;;;6.78;2.25;;;;;;;20.88;36.27;102793.19;5093426;28;20475;-71
2022/04/29 11:37:33;;;;;;;5.32;2.00;;;;;;;20.88;36.02;102788.72;5093631;28;20035;-72
2022/04/29 11:40:07;;;;;;;4.65;2.17;;;;;;;20.87;36.33;102780.88;5092679;28;20027;-72
2022/04/29 11:42:33;;;;;;;5.03;2.20;;;;;;;20.85;36.50;102778.31;5094522;28;20024;-72
2022/04/29 11:45:09;;;;;;;5.22;2.10;;;;;;;20.87;36.28;102787.03;5095670;28;20054;-72
2022/04/29 11:47:36;;;;;;;5.22;1.98;;;;;;;20.88;36.22;102785.22;5092762;28;20499;-71